Time;durP1;ratioP1;P1;durP2;ratioP2;P2;SDS_P1;SDS_P2;PMS_P1;PMS_P2;Temp;Humidity;BMP_temperature;BMP_pressure;BME280_temperature;BME280_humidity;BME280_pressure;Samples;Min_cycle;Max_cycle;Signal;HPM_P1;HPM_P2
2020/12/28 00:00:17;;;;;;;1.43;0.63;;;5.30;99.90;;;;;;4976655;28;20229;-76
2020/12/28 00:02:43;;;;;;;0.95;0.65;;;5.30;99.90;;;;;;4994291;28;20214;-76
2020/12/28 00:05:11;;;;;;;1.02;0.50;;;5.30;99.90;;;;;;4974549;28;20170;-76
2020/12/28 00:07:37;;;;;;;0.70;0.43;;;5.30;99.90;;;;;;4995760;28;20221;-75
2020/12/28 00:10:05;;;;;;;0.88;0.57;;;5.20;99.90;;;;;;4986427;28;20210;-76
2020/12/28 00:12:46;;;;;;;0.60;0.45;;;5.20;99.90;;;;;;4981471;28;20197;-76
2020/12/28 00:15:33;;;;;;;0.85;0.55;;;5.20;99.90;;;;;;4995618;28;20256;-75
2020/12/28 00:18:01;;;;;;;0.47;0.30;;;5.20;99.90;;;;;;4977330;28;20288;-76
2020/12/28 00:20:29;;;;;;;0.77;0.30;;;5.20;99.90;;;;;;4977312;28;20269;-76
2020/12/28 00:22:54;;;;;;;0.60;0.40;;;5.20;99.90;;;;;;4976720;28;20234;-76
2020/12/28 00:25:22;;;;;;;0.70;0.30;;;5.30;99.90;;;;;;4958991;28;20215;-76
2020/12/28 00:27:48;;;;;;;1.05;0.40;;;5.30;99.90;;;;;;4963813;28;20199;-76
2020/12/28 00:30:14;;;;;;;0.77;0.50;;;5.20;99.90;;;;;;4977394;28;20210;-76
2020/12/28 00:32:40;;;;;;;0.90;0.30;;;5.30;99.90;;;;;;4995233;28;20191;-76
2020/12/28 00:35:07;;;;;;;0.97;0.40;;;5.20;99.90;;;;;;4976670;28;20433;-76
2020/12/28 00:37:33;;;;;;;0.60;0.40;;;5.20;99.90;;;;;;4994063;28;20457;-76
2020/12/28 00:39:59;;;;;;;0.63;0.47;;;5.20;99.90;;;;;;4976087;28;20174;-76
2020/12/28 00:42:25;;;;;;;0.63;0.40;;;5.20;99.90;;;;;;4976849;28;20252;-76
2020/12/28 00:44:51;;;;;;;0.60;0.30;;;5.10;99.90;;;;;;4975974;28;20641;-76
2020/12/28 00:47:17;;;;;;;0.65;0.30;;;5.20;99.90;;;;;;4992457;28;20185;-76
2020/12/28 00:49:43;;;;;;;0.40;0.30;;;5.20;99.90;;;;;;4975946;28;20573;-76
2020/12/28 00:52:09;;;;;;;0.55;0.45;;;5.20;99.90;;;;;;4988507;28;20692;-76
2020/12/28 00:54:35;;;;;;;0.60;0.40;;;5.10;99.90;;;;;;4976635;28;20258;-76
2020/12/28 00:57:02;;;;;;;0.50;0.30;;;5.10;99.90;;;;;;4983215;28;20563;-75
2020/12/28 00:59:27;;;;;;;0.70;0.40;;;5.20;99.90;;;;;;4961774;28;20210;-76
2020/12/28 01:01:55;;;;;;;0.63;0.40;;;5.10;99.90;;;;;;4994698;28;20206;-76
2020/12/28 01:04:21;;;;;;;0.80;0.38;;;5.10;99.90;;;;;;4977031;28;20189;-75
2020/12/28 01:06:47;;;;;;;0.60;0.40;;;5.10;99.90;;;;;;4974158;28;20248;-76
2020/12/28 01:09:13;;;;;;;0.60;0.50;;;5.10;99.90;;;;;;4957509;28;20180;-76
2020/12/28 01:11:39;;;;;;;0.98;0.50;;;5.10;99.90;;;;;;4957203;28;20466;-75
2020/12/28 01:14:05;;;;;;;0.50;0.40;;;5.10;99.90;;;;;;4993918;28;20221;-76
2020/12/28 01:16:30;;;;;;;0.57;0.50;;;5.10;99.90;;;;;;4992458;28;20207;-76
2020/12/28 01:18:56;;;;;;;0.90;0.30;;;5.10;99.90;;;;;;4978387;28;20234;-75
2020/12/28 01:21:23;;;;;;;0.67;0.33;;;5.10;99.90;;;;;;4978099;28;20206;-76
2020/12/28 01:23:48;;;;;;;1.10;0.40;;;5.10;99.90;;;;;;4977437;28;20191;-76
2020/12/28 01:26:15;;;;;;;0.50;0.40;;;5.10;99.90;;;;;;4992553;28;20213;-75
2020/12/28 01:28:41;;;;;;;0.63;0.35;;;5.20;99.90;;;;;;4995258;28;20425;-76
2020/12/28 01:31:07;;;;;;;0.50;0.30;;;5.10;99.90;;;;;;4993301;28;20703;-76
2020/12/28 01:33:33;;;;;;;0.70;0.40;;;5.10;99.90;;;;;;4977570;28;20218;-76
2020/12/28 01:35:59;;;;;;;0.60;0.40;;;5.00;99.90;;;;;;4989153;28;20210;-76
2020/12/28 01:38:24;;;;;;;0.50;0.30;;;5.10;99.90;;;;;;4997913;28;20201;-76
2020/12/28 01:40:50;;;;;;;0.60;0.50;;;5.00;99.90;;;;;;4997435;28;20217;-75
2020/12/28 01:43:17;;;;;;;0.50;0.40;;;5.00;99.90;;;;;;4981760;28;20281;-76
2020/12/28 01:45:43;;;;;;;0.73;0.30;;;5.00;99.90;;;;;;4980527;28;20212;-76
2020/12/28 01:48:09;;;;;;;0.60;0.30;;;5.00;99.90;;;;;;4996312;28;20528;-75
2020/12/28 01:50:35;;;;;;;0.60;0.40;;;5.10;99.90;;;;;;4984433;28;20210;-76
2020/12/28 01:53:01;;;;;;;0.60;0.35;;;5.10;99.90;;;;;;4979773;28;20591;-76
2020/12/28 01:55:27;;;;;;;0.60;0.35;;;5.10;99.90;;;;;;4962310;28;20234;-76
2020/12/28 01:57:54;;;;;;;0.50;0.30;;;5.00;99.90;;;;;;4995054;28;20226;-76
2020/12/28 02:00:20;;;;;;;1.02;0.50;;;5.00;99.90;;;;;;4986462;28;20214;-76
2020/12/28 02:02:46;;;;;;;0.70;0.30;;;5.00;99.90;;;;;;4990373;28;20285;-76
2020/12/28 02:05:11;;;;;;;0.50;0.30;;;5.00;99.90;;;;;;4979026;28;20222;-75
2020/12/28 02:07:39;;;;;;;0.60;0.30;;;5.00;99.90;;;;;;4998636;28;20409;-75
2020/12/28 02:10:09;;;;;;;0.90;0.40;;;5.00;99.90;;;;;;4972654;28;20175;-76
2020/12/28 02:12:39;;;;;;;0.60;0.50;;;5.00;99.90;;;;;;4979479;28;20198;-76
2020/12/28 02:15:06;;;;;;;0.52;0.35;;;4.90;99.90;;;;;;4960707;28;20222;-76
2020/12/28 02:17:32;;;;;;;0.60;0.40;;;4.90;99.90;;;;;;4977594;28;20191;-76
2020/12/28 02:19:58;;;;;;;0.50;0.30;;;5.00;99.90;;;;;;4978450;28;20175;-76
2020/12/28 02:22:24;;;;;;;1.00;0.40;;;5.00;99.90;;;;;;4982713;28;20310;-76
2020/12/28 02:24:49;;;;;;;0.50;0.30;;;5.00;99.90;;;;;;4997815;28;20186;-76
2020/12/28 02:27:15;;;;;;;0.70;0.40;;;5.00;99.90;;;;;;4995131;28;20457;-75
2020/12/28 02:29:41;;;;;;;0.70;0.47;;;5.00;99.90;;;;;;4997904;28;20266;-76
2020/12/28 02:32:07;;;;;;;0.50;0.30;;;4.90;99.90;;;;;;4975633;28;20988;-76
2020/12/28 02:34:32;;;;;;;0.80;0.40;;;4.90;99.90;;;;;;4977729;28;20160;-76
2020/12/28 02:36:58;;;;;;;0.50;0.30;;;4.90;99.90;;;;;;4978349;28;20583;-75
2020/12/28 02:39:24;;;;;;;0.65;0.40;;;5.00;99.90;;;;;;4978466;28;20164;-76
2020/12/28 02:41:50;;;;;;;0.50;0.40;;;5.00;99.90;;;;;;4979018;28;20210;-76
2020/12/28 02:44:15;;;;;;;0.60;0.30;;;4.90;99.90;;;;;;4995370;28;20238;-76
2020/12/28 02:46:41;;;;;;;0.50;0.43;;;4.90;99.90;;;;;;4996109;28;20203;-76
2020/12/28 02:49:07;;;;;;;0.60;0.37;;;4.90;99.90;;;;;;4998282;28;20167;-76
2020/12/28 02:51:33;;;;;;;0.80;0.40;;;4.90;99.90;;;;;;4995289;28;20266;-75
2020/12/28 02:53:59;;;;;;;1.17;0.40;;;4.90;99.90;;;;;;4978444;28;20600;-76
2020/12/28 02:56:24;;;;;;;0.50;0.30;;;4.90;99.90;;;;;;4980653;28;20258;-76
2020/12/28 02:58:50;;;;;;;0.50;0.30;;;4.90;99.90;;;;;;4978770;28;20565;-76
2020/12/28 03:01:16;;;;;;;0.60;0.30;;;4.90;99.90;;;;;;4963579;28;20377;-76
2020/12/28 03:03:41;;;;;;;0.60;0.50;;;4.90;99.90;;;;;;4996213;28;20191;-76
2020/12/28 03:06:07;;;;;;;0.60;0.30;;;5.00;99.90;;;;;;4992243;28;20214;-76
2020/12/28 03:08:33;;;;;;;0.53;0.37;;;4.90;99.90;;;;;;4958562;28;20180;-76
2020/12/28 03:10:58;;;;;;;0.50;0.30;;;4.90;99.90;;;;;;4977246;28;20238;-76
2020/12/28 03:13:24;;;;;;;0.60;0.30;;;5.00;99.90;;;;;;4961693;28;20214;-76
2020/12/28 03:15:50;;;;;;;0.53;0.40;;;4.90;99.90;;;;;;4977146;28;20297;-76
2020/12/28 03:18:15;;;;;;;0.50;0.40;;;5.00;99.90;;;;;;4976834;28;20210;-75
2020/12/28 03:20:41;;;;;;;1.33;0.40;;;4.90;99.90;;;;;;4959001;28;20221;-76
2020/12/28 03:23:07;;;;;;;0.70;0.30;;;4.90;99.90;;;;;;4975594;28;20179;-76
2020/12/28 03:25:32;;;;;;;0.60;0.40;;;4.90;99.90;;;;;;4967953;28;20554;-76
2020/12/28 03:27:58;;;;;;;0.67;0.50;;;4.90;99.90;;;;;;4976766;28;20213;-76
2020/12/28 03:30:24;;;;;;;0.60;0.43;;;4.90;99.90;;;;;;4993427;28;20229;-76
2020/12/28 03:32:49;;;;;;;0.80;0.40;;;4.80;99.90;;;;;;4982854;28;20310;-76
2020/12/28 03:35:15;;;;;;;0.57;0.40;;;4.80;99.90;;;;;;4994008;28;20230;-76
2020/12/28 03:37:41;;;;;;;0.70;0.30;;;4.80;99.90;;;;;;4965920;28;20688;-76
2020/12/28 03:40:06;;;;;;;0.50;0.30;;;4.80;99.90;;;;;;4965995;28;20421;-76
2020/12/28 03:42:32;;;;;;;0.40;0.30;;;4.80;99.90;;;;;;4994459;28;20182;-76
2020/12/28 03:44:58;;;;;;;0.40;0.30;;;4.70;99.90;;;;;;4993215;28;20185;-76
2020/12/28 03:47:23;;;;;;;0.50;0.40;;;4.70;99.90;;;;;;4994964;28;20228;-76
2020/12/28 03:49:49;;;;;;;0.50;0.40;;;4.80;99.90;;;;;;4976249;28;20228;-75
2020/12/28 03:52:15;;;;;;;0.40;0.30;;;4.70;99.90;;;;;;4976682;28;20227;-76
2020/12/28 03:54:40;;;;;;;0.53;0.30;;;4.70;99.90;;;;;;4993725;28;20221;-76
2020/12/28 03:57:06;;;;;;;0.80;0.40;;;4.60;99.90;;;;;;4982116;28;20260;-76
2020/12/28 03:59:32;;;;;;;0.60;0.40;;;4.60;99.90;;;;;;4993881;28;20250;-76
2020/12/28 04:01:58;;;;;;;0.70;0.40;;;4.60;99.90;;;;;;4974961;28;20261;-76
2020/12/28 04:04:23;;;;;;;0.83;0.53;;;4.60;99.90;;;;;;4988498;28;20201;-76
2020/12/28 04:06:49;;;;;;;0.60;0.40;;;4.70;99.90;;;;;;4980802;28;20636;-76
2020/12/28 04:09:15;;;;;;;0.50;0.37;;;4.70;99.90;;;;;;4993523;28;20174;-76
2020/12/28 04:11:40;;;;;;;0.60;0.40;;;4.60;99.90;;;;;;4993747;28;20875;-76
2020/12/28 04:14:06;;;;;;;1.10;0.40;;;4.60;99.90;;;;;;4976859;28;20175;-76
2020/12/28 04:16:32;;;;;;;0.50;0.40;;;4.60;99.90;;;;;;4972964;28;20629;-76
2020/12/28 04:18:57;;;;;;;0.60;0.50;;;4.50;99.90;;;;;;4993306;28;20179;-76
2020/12/28 04:21:23;;;;;;;0.57;0.40;;;4.50;99.90;;;;;;4981754;28;20211;-76
2020/12/28 04:23:49;;;;;;;0.60;0.43;;;4.50;99.90;;;;;;4956753;28;20217;-76
2020/12/28 04:26:14;;;;;;;0.70;0.40;;;4.50;99.90;;;;;;4982890;28;20234;-76
2020/12/28 04:28:40;;;;;;;0.70;0.60;;;4.50;99.90;;;;;;4975129;28;20265;-76
2020/12/28 04:31:10;;;;;;;0.50;0.50;;;4.50;99.90;;;;;;4981478;28;20218;-76
2020/12/28 04:33:37;;;;;;;0.60;0.40;;;4.40;99.90;;;;;;4976281;28;20191;-75
2020/12/28 04:36:03;;;;;;;0.85;0.50;;;4.50;99.90;;;;;;4992980;28;20304;-76
2020/12/28 04:38:29;;;;;;;1.48;0.80;;;4.50;99.90;;;;;;4993283;28;20229;-76
2020/12/28 04:40:55;;;;;;;0.70;0.70;;;4.50;99.90;;;;;;4972453;28;20657;-76
2020/12/28 04:43:20;;;;;;;0.80;0.65;;;4.50;99.90;;;;;;4974236;28;20183;-76
2020/12/28 04:45:46;;;;;;;0.77;0.50;;;4.50;99.90;;;;;;4973301;28;20210;-76
2020/12/28 04:48:12;;;;;;;1.43;0.60;;;4.50;99.90;;;;;;4974184;28;20163;-76
2020/12/28 04:50:39;;;;;;;1.43;0.90;;;4.50;99.90;;;;;;4974103;28;20712;-76
2020/12/28 04:53:06;;;;;;;0.80;0.60;;;4.40;99.90;;;;;;4975852;28;20948;-76
2020/12/28 04:55:32;;;;;;;0.73;0.73;;;4.40;99.90;;;;;;4986086;28;20573;-76
2020/12/28 04:57:59;;;;;;;0.67;0.63;;;4.40;99.90;;;;;;4973964;28;20195;-76
2020/12/28 05:00:25;;;;;;;0.93;0.80;;;4.40;99.90;;;;;;4989279;28;20486;-75
2020/12/28 05:02:51;;;;;;;0.80;0.45;;;4.40;99.90;;;;;;4992347;28;20207;-76
2020/12/28 05:05:17;;;;;;;1.00;0.90;;;4.30;99.90;;;;;;4985306;28;20674;-76
2020/12/28 05:07:49;;;;;;;1.30;0.60;;;4.30;99.90;;;;;;4955946;28;20172;-76
2020/12/28 05:10:25;;;;;;;1.30;0.65;;;4.30;99.90;;;;;;4963579;28;20525;-76
2020/12/28 05:12:51;;;;;;;1.30;0.80;;;4.20;99.90;;;;;;4993027;28;20193;-76
2020/12/28 05:15:17;;;;;;;1.60;1.07;;;4.20;99.90;;;;;;4992023;28;20210;-76
2020/12/28 05:17:52;;;;;;;5.97;2.40;;;4.10;99.90;;;;;;4993366;28;20532;-76
2020/12/28 05:20:25;;;;;;;2.80;1.90;;;4.10;99.90;;;;;;4991984;28;20811;-76
2020/12/28 05:22:52;;;;;;;1.50;0.90;;;4.10;99.90;;;;;;4984146;28;20238;-76
2020/12/28 05:25:19;;;;;;;0.80;0.60;;;4.10;99.90;;;;;;4956628;28;20211;-76
2020/12/28 05:27:47;;;;;;;1.98;0.70;;;4.10;99.90;;;;;;4974043;28;20167;-76
2020/12/28 05:30:13;;;;;;;1.00;0.50;;;4.00;99.90;;;;;;4975505;28;20214;-77
2020/12/28 05:32:46;;;;;;;1.23;1.13;;;4.10;99.90;;;;;;4972308;28;20649;-76
2020/12/28 05:35:16;;;;;;;1.20;1.00;;;4.00;99.90;;;;;;4972139;28;20234;-77
2020/12/28 05:37:45;;;;;;;0.98;0.73;;;4.00;99.90;;;;;;4997627;28;20193;-77
2020/12/28 05:40:12;;;;;;;2.20;0.75;;;4.00;99.90;;;;;;4981647;28;20187;-77
2020/12/28 05:42:49;;;;;;;1.80;1.00;;;4.00;99.90;;;;;;4974973;28;20222;-76
2020/12/28 05:45:15;;;;;;;2.50;1.10;;;4.00;99.90;;;;;;4973785;28;20669;-77
2020/12/28 05:47:41;;;;;;;1.63;0.93;;;4.00;99.90;;;;;;4988792;28;20213;-76
2020/12/28 05:50:09;;;;;;;1.33;0.88;;;3.90;99.90;;;;;;4996241;23;20356;-77
2020/12/28 05:52:46;;;;;;;2.83;1.25;;;3.90;99.90;;;;;;4991539;28;20178;-77
2020/12/28 05:55:17;;;;;;;1.15;1.05;;;3.80;99.90;;;;;;4984304;28;20674;-77
2020/12/28 05:57:45;;;;;;;0.95;0.80;;;3.80;99.90;;;;;;4978180;28;20680;-77
2020/12/28 06:00:10;;;;;;;2.05;1.02;;;3.80;99.90;;;;;;4969852;28;20231;-77
2020/12/28 06:02:39;;;;;;;3.03;0.73;;;3.80;99.90;;;;;;4954570;28;20602;-77
2020/12/28 06:05:08;;;;;;;5.20;1.23;;;3.70;99.90;;;;;;4971279;28;20207;-77
2020/12/28 06:07:34;;;;;;;1.67;0.77;;;3.70;99.90;;;;;;4971923;28;20645;-77
2020/12/28 06:10:00;;;;;;;1.53;0.70;;;3.70;99.90;;;;;;4971409;28;20207;-77
2020/12/28 06:12:26;;;;;;;0.80;0.60;;;3.60;99.90;;;;;;4954153;28;20199;-78
2020/12/28 06:14:51;;;;;;;1.90;0.50;;;3.60;99.90;;;;;;4971255;28;20184;-78
2020/12/28 06:17:17;;;;;;;0.90;0.73;;;3.60;99.90;;;;;;4971415;28;20195;-77
2020/12/28 06:19:43;;;;;;;0.80;0.60;;;3.50;99.90;;;;;;4986060;28;20237;-78
2020/12/28 06:22:24;;;;;;;0.90;0.60;;;3.40;99.90;;;;;;4993816;28;20211;-77
2020/12/28 06:25:04;;;;;;;1.25;0.60;;;3.30;99.90;;;;;;4957205;28;20183;-78
2020/12/28 06:27:31;;;;;;;0.90;0.60;;;3.20;99.90;;;;;;4976006;28;20205;-78
2020/12/28 06:30:08;;;;;;;1.42;0.73;;;3.20;99.90;;;;;;4974079;28;20175;-77
2020/12/28 06:32:34;;;;;;;0.77;0.70;;;3.30;99.90;;;;;;4993655;28;20200;-77
2020/12/28 06:35:01;;;;;;;6.27;1.00;;;3.30;99.90;;;;;;4993475;28;20254;-77
2020/12/28 06:37:27;;;;;;;1.05;0.50;;;3.30;99.90;;;;;;4993861;28;20446;-77
2020/12/28 06:39:57;;;;;;;1.73;0.63;;;3.30;99.90;;;;;;4991531;28;20170;-77
2020/12/28 06:42:26;;;;;;;1.80;1.15;;;3.30;99.90;;;;;;4993327;28;20418;-77
2020/12/28 06:44:52;;;;;;;3.20;1.00;;;3.20;99.90;;;;;;4988501;28;20202;-77
2020/12/28 06:47:21;;;;;;;1.10;0.77;;;3.20;99.90;;;;;;4993746;28;20170;-77
2020/12/28 06:49:48;;;;;;;1.17;0.88;;;3.10;99.90;;;;;;4985981;28;20187;-77
2020/12/28 06:52:14;;;;;;;1.83;0.65;;;3.10;99.90;;;;;;4973965;28;20218;-77
2020/12/28 06:54:40;;;;;;;2.35;0.50;;;3.00;99.90;;;;;;4991261;28;20178;-77
2020/12/28 06:57:07;;;;;;;1.77;0.75;;;3.10;99.90;;;;;;4993388;28;20223;-77
2020/12/28 06:59:34;;;;;;;2.05;0.75;;;3.00;99.90;;;;;;4977842;28;20172;-77
2020/12/28 07:02:01;;;;;;;2.08;0.80;;;3.00;99.90;;;;;;4973694;28;20287;-77
2020/12/28 07:04:31;;;;;;;1.05;0.60;;;3.10;99.90;;;;;;4974035;28;20610;-77
2020/12/28 07:07:02;;;;;;;3.08;0.65;;;3.10;99.90;;;;;;4973629;28;20296;-77
2020/12/28 07:09:27;;;;;;;3.78;0.60;;;3.10;99.90;;;;;;4987390;28;20201;-77
2020/12/28 07:11:53;;;;;;;1.63;0.47;;;3.10;99.90;;;;;;4993008;28;20698;-77
2020/12/28 07:14:20;;;;;;;2.80;0.60;;;3.10;99.90;;;;;;4993321;28;20179;-77
2020/12/28 07:16:53;;;;;;;1.05;0.52;;;3.10;99.90;;;;;;4975493;28;20232;-76
2020/12/28 07:19:19;;;;;;;0.52;0.40;;;3.10;99.90;;;;;;4975103;28;20261;-77
2020/12/28 07:21:44;;;;;;;1.03;0.60;;;3.10;99.90;;;;;;4975464;28;20468;-77
2020/12/28 07:24:10;;;;;;;0.80;0.50;;;3.00;99.90;;;;;;4992483;28;20657;-76
2020/12/28 07:26:36;;;;;;;1.93;0.70;;;3.10;99.90;;;;;;4975004;28;20206;-76
2020/12/28 07:29:11;;;;;;;1.58;0.55;;;3.00;99.90;;;;;;4979398;28;20179;-76
2020/12/28 07:31:36;;;;;;;2.72;1.05;;;2.80;99.90;;;;;;4972789;28;20305;-77
2020/12/28 07:34:04;;;;;;;0.87;0.60;;;2.80;99.90;;;;;;4973540;28;20661;-77
2020/12/28 07:36:30;;;;;;;0.88;0.40;;;2.80;99.90;;;;;;5002683;28;20531;-77
2020/12/28 07:38:56;;;;;;;1.30;0.60;;;2.70;99.90;;;;;;4981343;28;20560;-76
2020/12/28 07:41:23;;;;;;;1.70;0.70;;;2.70;99.90;;;;;;4992231;28;20210;-77
2020/12/28 07:43:52;;;;;;;1.70;0.57;;;2.60;99.90;;;;;;4991997;28;20843;-77
2020/12/28 07:46:33;;;;;;;0.60;0.47;;;2.60;99.90;;;;;;4983563;28;20207;-77
2020/12/28 07:49:15;;;;;;;2.25;0.73;;;2.60;99.90;;;;;;4980682;28;20257;-76
2020/12/28 07:51:42;;;;;;;1.75;0.50;;;2.60;99.90;;;;;;4974763;28;20241;-77
2020/12/28 07:54:31;;;;;;;0.93;0.70;;;2.60;99.90;;;;;;4991710;28;20177;-77
2020/12/28 07:57:01;;;;;;;2.53;0.93;;;2.60;99.90;;;;;;4974334;28;20685;-77
2020/12/28 07:59:48;;;;;;;4.63;0.70;;;2.60;99.90;;;;;;4985285;28;20302;-76
2020/12/28 08:02:41;;;;;;;2.88;1.08;;;2.50;99.90;;;;;;4977790;28;20294;-77
2020/12/28 08:05:09;;;;;;;1.35;0.85;;;2.60;99.90;;;;;;4974331;28;20186;-77
2020/12/28 08:07:35;;;;;;;1.05;0.82;;;2.60;99.90;;;;;;4992687;28;20167;-77
2020/12/28 08:10:06;;;;;;;2.67;0.93;;;2.60;99.90;;;;;;4960907;28;20178;-77
2020/12/28 08:12:32;;;;;;;3.78;1.40;;;2.60;99.90;;;;;;4972864;28;20672;-77
2020/12/28 08:15:00;;;;;;;4.13;1.80;;;2.70;99.90;;;;;;4972716;28;20175;-77
2020/12/28 08:17:27;;;;;;;3.10;1.10;;;2.70;99.90;;;;;;4972572;28;20765;-76
2020/12/28 08:20:12;;;;;;;0.95;0.73;;;2.70;99.90;;;;;;4954972;28;20194;-77
2020/12/28 08:22:41;;;;;;;1.77;0.85;;;2.70;99.90;;;;;;4956247;28;20190;-77
2020/12/28 08:25:10;;;;;;;2.05;1.00;;;2.80;99.90;;;;;;4981018;28;20301;-77
2020/12/28 08:27:37;;;;;;;2.33;0.80;;;2.80;99.90;;;;;;4958429;28;20670;-77
2020/12/28 08:30:07;;;;;;;1.42;1.02;;;2.70;99.90;;;;;;4969133;28;20182;-76
2020/12/28 08:32:35;;;;;;;2.90;1.40;;;2.70;99.90;;;;;;4965161;28;20268;-77
2020/12/28 08:35:02;;;;;;;2.65;1.58;;;2.70;99.90;;;;;;4988143;28;20178;-76
2020/12/28 08:37:32;;;;;;;3.05;1.20;;;2.70;99.90;;;;;;4996331;28;20230;-76
2020/12/28 08:39:57;;;;;;;2.65;1.70;;;2.70;99.90;;;;;;4995378;28;20174;-76
2020/12/28 08:42:28;;;;;;;2.43;1.10;;;2.70;99.90;;;;;;4995191;28;20183;-76
2020/12/28 08:44:54;;;;;;;3.63;1.27;;;2.60;99.90;;;;;;4977000;28;20181;-76
2020/12/28 08:47:24;;;;;;;2.10;1.90;;;2.70;99.90;;;;;;4976264;28;20604;-77
2020/12/28 08:49:51;;;;;;;3.92;1.55;;;2.70;99.90;;;;;;4990680;28;20656;-77
2020/12/28 08:52:18;;;;;;;2.20;1.13;;;2.70;99.90;;;;;;4990997;28;20249;-77
2020/12/28 08:54:58;;;;;;;2.20;1.25;;;2.80;99.90;;;;;;4971013;28;20186;-77
2020/12/28 08:57:28;;;;;;;2.33;1.25;;;2.90;99.90;;;;;;4987807;28;20210;-77
2020/12/28 08:59:56;;;;;;;2.92;1.75;;;2.90;99.90;;;;;;4988091;28;20201;-77
2020/12/28 09:02:23;;;;;;;3.63;1.55;;;2.90;99.90;;;;;;4970724;28;20182;-79
2020/12/28 09:04:49;;;;;;;4.32;1.70;;;3.00;99.90;;;;;;4983470;28;20562;-78
2020/12/28 09:07:17;;;;;;;2.55;1.90;;;3.00;99.90;;;;;;4971132;28;20607;-77
2020/12/28 09:09:45;;;;;;;2.92;2.00;;;3.00;99.90;;;;;;4972798;28;20173;-77
2020/12/28 09:12:12;;;;;;;3.10;2.05;;;3.00;99.90;;;;;;4982556;28;20211;-77
2020/12/28 09:14:38;;;;;;;4.72;2.17;;;3.10;99.90;;;;;;4955070;28;20597;-77
2020/12/28 09:17:04;;;;;;;2.50;1.38;;;3.10;99.90;;;;;;4971347;28;20242;-77
2020/12/28 09:19:30;;;;;;;2.35;1.80;;;3.10;99.90;;;;;;4973311;28;20195;-76
2020/12/28 09:22:00;;;;;;;3.05;1.70;;;3.10;99.90;;;;;;4954467;28;20665;-77
2020/12/28 09:24:26;;;;;;;3.10;1.73;;;3.10;99.90;;;;;;4955963;28;20171;-78
2020/12/28 09:26:56;;;;;;;3.08;1.70;;;3.10;99.90;;;;;;4984400;28;20636;-78
2020/12/28 09:29:22;;;;;;;6.10;2.53;;;3.10;99.90;;;;;;4989647;28;20170;-77
2020/12/28 09:31:48;;;;;;;4.80;2.87;;;3.10;99.90;;;;;;4986700;28;20221;-76
2020/12/28 09:34:14;;;;;;;2.07;1.87;;;3.20;99.90;;;;;;4992141;28;20178;-76
2020/12/28 09:36:39;;;;;;;5.40;2.10;;;3.10;99.90;;;;;;4979078;28;20474;-76
2020/12/28 09:39:06;;;;;;;3.70;1.90;;;3.20;99.90;;;;;;4977870;28;20207;-76
2020/12/28 09:41:31;;;;;;;3.75;2.17;;;3.20;99.90;;;;;;4955121;28;20277;-76
2020/12/28 09:43:57;;;;;;;1.37;1.20;;;3.20;99.90;;;;;;4972662;28;20652;-76
2020/12/28 09:46:23;;;;;;;3.47;1.43;;;3.20;99.90;;;;;;4971710;28;20207;-77
2020/12/28 09:48:50;;;;;;;3.10;1.40;;;3.20;99.90;;;;;;4960148;28;20186;-76
2020/12/28 09:51:16;;;;;;;1.83;1.60;;;3.10;99.90;;;;;;4986901;28;20465;-76
2020/12/28 09:53:42;;;;;;;2.47;1.60;;;3.10;99.90;;;;;;4991243;28;20300;-76
2020/12/28 09:56:11;;;;;;;2.25;1.52;;;3.10;99.90;;;;;;4991096;28;20292;-76
2020/12/28 09:58:37;;;;;;;3.22;2.10;;;3.10;99.90;;;;;;4995613;28;20203;-76
2020/12/28 10:01:05;;;;;;;2.03;1.43;;;3.00;99.90;;;;;;4994114;28;20265;-76
2020/12/28 10:03:32;;;;;;;1.60;1.15;;;3.00;99.90;;;;;;4980342;28;20527;-77
2020/12/28 10:05:57;;;;;;;2.47;1.48;;;3.10;99.90;;;;;;4957800;28;20565;-77
2020/12/28 10:08:23;;;;;;;2.17;1.60;;;3.10;99.90;;;;;;4981213;28;20182;-77
2020/12/28 10:10:49;;;;;;;2.15;1.45;;;3.10;99.90;;;;;;4983368;28;20326;-76
2020/12/28 10:13:15;;;;;;;4.13;2.20;;;3.10;99.90;;;;;;4959801;28;20282;-77
2020/12/28 10:15:41;;;;;;;1.60;1.40;;;3.10;99.90;;;;;;4965311;28;20493;-76
2020/12/28 10:18:21;;;;;;;1.87;1.43;;;3.20;99.90;;;;;;4977515;28;20195;-78
2020/12/28 10:20:48;;;;;;;1.95;1.10;;;3.20;99.90;;;;;;4974710;28;20501;-77
2020/12/28 10:23:13;;;;;;;2.35;1.17;;;3.30;99.90;;;;;;4965491;28;20293;-76
2020/12/28 10:25:39;;;;;;;2.93;1.00;;;3.30;99.90;;;;;;4968891;28;20844;-77
2020/12/28 10:28:05;;;;;;;3.07;1.30;;;3.30;99.90;;;;;;4991841;28;20731;-77
2020/12/28 10:30:31;;;;;;;2.55;1.17;;;3.30;99.90;;;;;;4974835;28;20217;-77
2020/12/28 10:32:57;;;;;;;2.70;1.40;;;3.30;99.90;;;;;;4980422;28;20195;-77
2020/12/28 10:35:23;;;;;;;2.13;1.43;;;3.30;99.90;;;;;;4958882;28;20685;-77
2020/12/28 10:37:49;;;;;;;2.70;1.60;;;3.40;99.90;;;;;;4980788;28;20515;-76
2020/12/28 10:40:15;;;;;;;3.30;1.50;;;3.40;99.90;;;;;;4993678;28;20457;-76
2020/12/28 10:42:41;;;;;;;3.60;1.60;;;3.40;99.90;;;;;;4986369;28;20466;-77
2020/12/28 10:45:06;;;;;;;1.60;1.50;;;3.60;99.90;;;;;;4958870;28;20171;-77
2020/12/28 10:47:32;;;;;;;2.50;1.40;;;3.60;99.90;;;;;;4987881;28;20166;-78
2020/12/28 10:49:58;;;;;;;2.73;1.33;;;3.60;99.90;;;;;;4993323;28;20202;-77
2020/12/28 10:52:24;;;;;;;4.80;1.40;;;3.70;99.90;;;;;;4976800;28;20195;-76
2020/12/28 10:54:49;;;;;;;1.80;1.40;;;3.70;99.90;;;;;;4959081;28;20178;-77
2020/12/28 10:57:15;;;;;;;2.40;1.37;;;3.70;99.90;;;;;;4985308;28;20330;-77
2020/12/28 10:59:40;;;;;;;1.57;1.20;;;3.80;99.90;;;;;;4976703;28;20174;-76
2020/12/28 11:02:07;;;;;;;2.20;1.37;;;3.70;99.90;;;;;;4993148;28;20207;-77
2020/12/28 11:04:32;;;;;;;1.40;1.30;;;3.80;99.90;;;;;;4995026;28;20178;-78
2020/12/28 11:06:58;;;;;;;1.50;1.20;;;3.80;99.90;;;;;;4974441;28;20558;-77
2020/12/28 11:09:24;;;;;;;1.53;1.20;;;3.80;99.90;;;;;;4995665;28;20464;-76
2020/12/28 11:11:51;;;;;;;1.53;1.40;;;3.90;99.90;;;;;;4979204;28;20210;-78
2020/12/28 11:14:17;;;;;;;4.13;2.25;;;3.90;99.90;;;;;;4991268;28;20425;-76
2020/12/28 11:16:43;;;;;;;2.40;1.80;;;4.00;99.90;;;;;;4982137;28;20214;-76
2020/12/28 11:19:09;;;;;;;1.43;1.10;;;4.00;99.90;;;;;;4984537;28;20222;-76
2020/12/28 11:21:35;;;;;;;2.22;1.25;;;4.10;99.90;;;;;;4975597;28;20214;-77
2020/12/28 11:24:02;;;;;;;1.43;0.90;;;4.20;99.90;;;;;;4986147;28;20254;-76
2020/12/28 11:26:32;;;;;;;1.70;1.20;;;4.20;99.90;;;;;;4976791;28;20203;-77
2020/12/28 11:28:59;;;;;;;3.00;1.40;;;4.30;99.90;;;;;;4999860;28;20175;-77
2020/12/28 11:31:25;;;;;;;3.35;1.48;;;4.30;99.90;;;;;;4978112;28;20211;-77
2020/12/28 11:33:52;;;;;;;1.23;1.08;;;4.30;99.90;;;;;;4956563;28;20222;-76
2020/12/28 11:36:18;;;;;;;1.70;1.08;;;4.40;99.90;;;;;;4990804;28;20210;-76
2020/12/28 11:38:45;;;;;;;1.55;1.40;;;4.40;99.90;;;;;;4976554;28;20217;-76
2020/12/28 11:41:15;;;;;;;2.03;0.90;;;4.50;99.90;;;;;;4994705;28;20515;-76
2020/12/28 11:43:43;;;;;;;3.35;1.73;;;4.50;99.90;;;;;;4994067;28;20182;-76
2020/12/28 11:46:09;;;;;;;1.92;1.20;;;4.50;99.90;;;;;;4994169;28;20214;-76
2020/12/28 11:48:39;;;;;;;2.90;1.30;;;4.60;99.90;;;;;;4994036;28;20186;-77
2020/12/28 11:51:07;;;;;;;1.70;1.38;;;4.70;99.90;;;;;;4993283;28;20268;-77
2020/12/28 11:53:36;;;;;;;2.00;1.48;;;4.70;99.90;;;;;;4984605;28;20218;-77
2020/12/28 11:56:03;;;;;;;2.78;1.67;;;4.80;99.90;;;;;;4976023;28;20230;-77
2020/12/28 11:58:35;;;;;;;2.63;2.00;;;4.80;99.90;;;;;;4979356;28;20263;-76
2020/12/28 12:01:01;;;;;;;6.07;2.33;;;4.80;99.90;;;;;;4990064;28;20267;-77
2020/12/28 12:03:28;;;;;;;3.67;2.03;;;4.80;99.90;;;;;;4973021;28;20205;-77
2020/12/28 12:05:58;;;;;;;3.13;1.58;;;4.80;99.90;;;;;;4957182;28;20217;-77
2020/12/28 12:08:25;;;;;;;2.75;1.70;;;4.90;99.90;;;;;;4988755;28;20179;-78
2020/12/28 12:10:51;;;;;;;2.70;1.80;;;4.90;99.90;;;;;;4972226;28;20697;-77
2020/12/28 12:13:18;;;;;;;3.20;2.30;;;4.90;99.90;;;;;;4974720;28;20270;-76
2020/12/28 12:15:44;;;;;;;1.38;1.25;;;5.00;99.90;;;;;;4987839;28;20549;-76
2020/12/28 12:18:10;;;;;;;3.75;2.40;;;4.90;99.90;;;;;;4957167;28;20202;-76
2020/12/28 12:20:37;;;;;;;3.65;1.75;;;4.90;99.90;;;;;;4957825;28;20211;-76
2020/12/28 12:23:03;;;;;;;5.25;2.50;;;4.90;99.90;;;;;;4957694;28;20183;-76
2020/12/28 12:25:29;;;;;;;4.80;1.70;;;4.90;99.90;;;;;;4975308;28;20308;-76
2020/12/28 12:27:54;;;;;;;2.30;1.17;;;4.90;99.90;;;;;;4976467;28;20171;-76
2020/12/28 12:30:20;;;;;;;2.30;1.50;;;5.00;99.90;;;;;;4974698;28;20210;-76
2020/12/28 12:32:46;;;;;;;2.20;1.07;;;5.00;99.90;;;;;;4981557;28;20197;-77
2020/12/28 12:35:11;;;;;;;1.17;1.00;;;4.90;99.90;;;;;;4981715;28;20957;-77
2020/12/28 12:37:37;;;;;;;3.60;1.47;;;4.90;99.90;;;;;;4987610;28;20203;-77
2020/12/28 12:40:03;;;;;;;5.10;1.77;;;5.00;99.90;;;;;;4990864;28;20201;-77
2020/12/28 12:42:28;;;;;;;3.37;1.60;;;5.10;99.90;;;;;;4978288;28;20230;-77
2020/12/28 12:44:54;;;;;;;3.40;1.87;;;5.00;99.90;;;;;;4974869;28;20542;-76
2020/12/28 12:47:20;;;;;;;1.70;1.50;;;5.00;99.90;;;;;;4984769;28;20210;-77
2020/12/28 12:49:46;;;;;;;1.93;1.40;;;4.90;99.90;;;;;;4983710;28;20202;-76
2020/12/28 12:52:17;;;;;;;4.50;1.63;;;5.00;99.90;;;;;;4975677;28;20219;-76
2020/12/28 12:54:43;;;;;;;3.33;1.60;;;5.00;99.90;;;;;;4958697;28;20426;-76
2020/12/28 12:57:09;;;;;;;5.70;2.13;;;5.10;99.90;;;;;;4973704;28;20207;-77